Independent — WDJ441 — position and weather

sailwx.info

Track history (hours):
 
Tides and Currents Weather Stations Pressure Air Temp Water Temp Dewpoint Dewpoint Depression Visibility Wind Speed Wind Dir Waves Ship Positions

Independent

Last reported at 2017-Nov-18 07:18 UTC. Time now 2017-Nov-22 10:47 UTC.
Position N 27°37' W 082°41'.

Length 28 m; draft 5 m.

Type: Tug. MMSI: 367777460.

Date/timePositionNaut miles runAvg speedWind from/ knotsBaromVisibWave heightAir tempDewpointWater temp
2017-Nov-18 07:18N 27°37' W 082°41'310.6
2017-Nov-18 07:01N 27°38' W 082°37'510.2
2017-Nov-18 06:30N 27°42' W 082°33'5 9.8
2017-Nov-18 06:01N 27°46' W 082°31'5 9.5
2017-Nov-18 05:30N 27°49' W 082°27'510.0
2017-Nov-18 05:01N 27°54' W 082°26'2 4.2
2017-Nov-18 04:30N 27°56' W 082°26'0 0.0
2017-Nov-18 04:00N 27°56' W 082°26'0 0.0
2017-Nov-18 03:30N 27°56' W 082°26'0 0.0
2017-Nov-18 03:00N 27°56' W 082°26'0 0.0
2017-Nov-18 02:30N 27°56' W 082°26'0 0.0
2017-Nov-18 02:00N 27°56' W 082°26'0 0.0
2017-Nov-18 01:30N 27°56' W 082°26'0 0.0
2017-Nov-18 01:00N 27°56' W 082°26'1 2.1
2017-Nov-18 00:30N 27°55' W 082°27'0 0.1
2017-Nov-18 00:00N 27°55' W 082°27'2 4.4
2017-Nov-17 23:30N 27°53' W 082°26'0 0.4
2017-Nov-17 23:00N 27°53' W 082°26'3 5.9
2017-Nov-17 22:30N 27°56' W 082°26'0 0.0
2017-Nov-17 22:00N 27°56' W 082°26'0 0.0
2017-Nov-17 21:30N 27°56' W 082°26'0 0.0
2017-Nov-17 21:00N 27°56' W 082°26'0 0.0
2017-Nov-17 20:30N 27°56' W 082°26'0 0.0
2017-Nov-17 20:00N 27°56' W 082°26'0 0.0
2017-Nov-17 19:30N 27°56' W 082°26'0 0.0
2017-Nov-17 19:00N 27°56' W 082°26'0 0.0
2017-Nov-17 18:30N 27°56' W 082°26'0 0.0
2017-Nov-17 18:00N 27°56' W 082°26'1 2.0
2017-Nov-17 17:30N 27°55' W 082°26'1 1.6
2017-Nov-17 17:00N 27°55' W 082°27'0 0.1
2017-Nov-17 16:30N 27°55' W 082°27'2 3.9
2017-Nov-17 16:01N 27°53' W 082°26'3 5.9
2017-Nov-17 15:31N 27°56' W 082°26'0 0.5
2017-Nov-17 15:00N 27°56' W 082°26'0 0.0
2017-Nov-17 14:30N 27°56' W 082°26'0 0.0
2017-Nov-17 14:00N 27°56' W 082°26'0 0.0
2017-Nov-17 13:30N 27°56' W 082°26'0 0.0
2017-Nov-17 13:00N 27°56' W 082°26'0 0.0
2017-Nov-17 12:30N 27°56' W 082°26'0 0.0
2017-Nov-17 12:00N 27°56' W 082°26'0 0.0
2017-Nov-17 11:30N 27°56' W 082°26'0 0.0
2017-Nov-17 11:00N 27°56' W 082°26'0 0.0
2017-Nov-17 10:30N 27°56' W 082°26'0 0.0
2017-Nov-17 10:00N 27°56' W 082°26'0 0.0
2017-Nov-17 09:30N 27°56' W 082°26'0 0.0
2017-Nov-17 09:00N 27°56' W 082°26'0 0.0
2017-Nov-17 08:30N 27°56' W 082°26'0 0.0
2017-Nov-17 08:00N 27°56' W 082°26'0 0.0
2017-Nov-17 07:30N 27°56' W 082°26'0 0.0
2017-Nov-17 07:00N 27°56' W 082°26'0 0.0
2017-Nov-17 06:30N 27°56' W 082°26'0 0.0
2017-Nov-17 06:00N 27°56' W 082°26'1 1.7
2017-Nov-17 05:30N 27°56' W 082°27'1 2.6
2017-Nov-17 05:01N 27°57' W 082°27'0 0.0
2017-Nov-17 04:30N 27°57' W 082°27'0 0.0
2017-Nov-17 04:00N 27°57' W 082°27'2 3.8
2017-Nov-17 03:31N 27°55' W 082°27'1 2.4
2017-Nov-17 03:00N 27°56' W 082°26'0 0.0
2017-Nov-17 02:30N 27°56' W 082°26'0 0.0
2017-Nov-17 02:00N 27°56' W 082°26'0 0.0
2017-Nov-17 01:30N 27°56' W 082°26'0 0.0
2017-Nov-17 01:00N 27°56' W 082°26'0 0.0
2017-Nov-17 00:30N 27°56' W 082°26'0 0.0
2017-Nov-17 00:00N 27°56' W 082°26'0 0.0
2017-Nov-16 23:30N 27°56' W 082°26'0 0.0
2017-Nov-16 23:00N 27°56' W 082°26'0 0.0
2017-Nov-16 22:30N 27°56' W 082°26'0 0.0
2017-Nov-16 22:00N 27°56' W 082°26'0 0.0
2017-Nov-16 21:30N 27°56' W 082°26'0 0.0
2017-Nov-16 21:00N 27°56' W 082°26'0 0.0
2017-Nov-16 20:30N 27°56' W 082°26'0 0.0
2017-Nov-16 20:00N 27°56' W 082°26'0 0.0
2017-Nov-16 19:30N 27°56' W 082°26'0 0.0
2017-Nov-16 19:00N 27°56' W 082°26'0 0.0
2017-Nov-16 18:30N 27°56' W 082°26'0 0.0
2017-Nov-16 18:00N 27°56' W 082°26'0 0.0
2017-Nov-16 17:30N 27°56' W 082°26'0 0.0
2017-Nov-16 17:00N 27°56' W 082°26'0 0.0
2017-Nov-16 16:30N 27°56' W 082°26'0 0.0
2017-Nov-16 16:00N 27°56' W 082°26'1 2.5
2017-Nov-16 15:31N 27°55' W 082°26'1 1.6
2017-Nov-16 15:00N 27°55' W 082°27'0 0.6
2017-Nov-16 14:31N 27°55' W 082°26'0 0.0
2017-Nov-16 14:00N 27°55' W 082°26'3 5.2
2017-Nov-16 13:30N 27°52' W 082°27'4 7.7
2017-Nov-16 13:00N 27°48' W 082°25'0 0.0
2017-Nov-16 12:30N 27°48' W 082°25'2 4.0
2017-Nov-16 12:00N 27°49' W 082°27'5 9.4
2017-Nov-16 11:30N 27°53' W 082°26'2 4.6
2017-Nov-16 11:00N 27°56' W 082°26'0 0.0
2017-Nov-16 10:30N 27°56' W 082°26'0 0.8
2017-Nov-16 10:00N 27°56' W 082°26'0 0.0
2017-Nov-16 09:30N 27°56' W 082°26'0 0.0
2017-Nov-16 09:00N 27°56' W 082°26'0 0.0
2017-Nov-16 08:30N 27°56' W 082°26'0 0.0
2017-Nov-16 08:00N 27°56' W 082°26'0 0.0
2017-Nov-16 07:30N 27°56' W 082°26'0 0.0
2017-Nov-16 07:00N 27°56' W 082°26'0 0.0
2017-Nov-16 06:30N 27°56' W 082°26'0 0.0
2017-Nov-16 06:00N 27°56' W 082°26'0 0.0
2017-Nov-16 05:30N 27°56' W 082°26'0 0.0
2017-Nov-16 05:00N 27°56' W 082°26'0 0.0
2017-Nov-16 04:30N 27°56' W 082°26'0 0.0
2017-Nov-16 04:00N 27°56' W 082°26'0 0.0
2017-Nov-16 03:30N 27°56' W 082°26'0 0.0
2017-Nov-16 03:00N 27°56' W 082°26'0 0.0
2017-Nov-16 02:30N 27°56' W 082°26'0 0.0
2017-Nov-16 02:00N 27°56' W 082°26'0 0.0
2017-Nov-16 01:30N 27°56' W 082°26'0 0.0
2017-Nov-16 01:00N 27°56' W 082°26'0 0.0
2017-Nov-16 00:30N 27°56' W 082°26'0 0.0
2017-Nov-16 00:00N 27°56' W 082°26'0 0.0
2017-Nov-15 23:30N 27°56' W 082°26'1 2.0
2017-Nov-15 23:00N 27°55' W 082°26'1 1.7
2017-Nov-15 22:31N 27°54' W 082°26'1 1.5
2017-Nov-15 22:01N 27°55' W 082°25'0 0.0
2017-Nov-15 21:30N 27°55' W 082°25'1 2.0
2017-Nov-15 21:00N 27°55' W 082°27'0 0.0
2017-Nov-15 20:30N 27°55' W 082°27'0 0.1
2017-Nov-15 20:00N 27°55' W 082°27'1 1.2
2017-Nov-15 19:30N 27°54' W 082°26'1 2.9
2017-Nov-15 19:00N 27°53' W 082°26'1 2.2
2017-Nov-15 18:30N 27°54' W 082°26'1 1.4
2017-Nov-15 18:00N 27°55' W 082°26'0 0.0
2017-Nov-15 17:30N 27°55' W 082°26'0 0.0
2017-Nov-15 17:00N 27°55' W 082°26'0 0.0
2017-Nov-15 16:30N 27°55' W 082°26'0 0.0
2017-Nov-15 16:00N 27°55' W 082°26'0 0.0
2017-Nov-15 15:30N 27°55' W 082°26'2 3.8
2017-Nov-15 15:01N 27°53' W 082°27'510.1
2017-Nov-15 14:30N 27°48' W 082°29'510.1
2017-Nov-15 14:00N 27°48' W 082°34'4 8.3
2017-Nov-15 13:30N 27°52' W 082°33'0 0.0
2017-Nov-15 13:00N 27°52' W 082°33'1 1.9
2017-Nov-15 12:30N 27°51' W 082°34'2 3.9
2017-Nov-15 12:00N 27°49' W 082°34'4 8.0
2017-Nov-15 11:30N 27°47' W 082°30'510.7
2017-Nov-15 11:00N 27°52' W 082°27'3 6.7
2017-Nov-15 10:30N 27°55' W 082°27'0 0.0
2017-Nov-15 10:00N 27°55' W 082°27'1 2.1
2017-Nov-15 09:30N 27°56' W 082°26'0 0.0
2017-Nov-15 09:00N 27°56' W 082°26'0 0.0
2017-Nov-15 08:30N 27°56' W 082°26'0 0.0
2017-Nov-15 08:00N 27°56' W 082°26'0 0.0
2017-Nov-15 07:30N 27°56' W 082°26'0 0.0
2017-Nov-15 07:00N 27°56' W 082°26'0 0.0
2017-Nov-15 06:30N 27°56' W 082°26'0 0.0
2017-Nov-15 06:00N 27°56' W 082°26'0 0.0
2017-Nov-15 05:30N 27°56' W 082°26'0 0.0
2017-Nov-15 05:00N 27°56' W 082°26'0 0.0
2017-Nov-15 04:30N 27°56' W 082°26'0 0.0
2017-Nov-15 04:00N 27°56' W 082°26'0 0.0
2017-Nov-15 03:30N 27°56' W 082°26'0 0.0
2017-Nov-15 03:01N 27°56' W 082°26'0 0.0
2017-Nov-15 02:30N 27°56' W 082°26'0 0.0
2017-Nov-15 02:00N 27°56' W 082°26'0 0.0
2017-Nov-15 01:30N 27°56' W 082°26'0 0.0
2017-Nov-15 01:00N 27°56' W 082°26'0 0.0
2017-Nov-15 00:30N 27°56' W 082°26'1 2.2
2017-Nov-15 00:00N 27°55' W 082°25'0 0.0
2017-Nov-14 23:30N 27°55' W 082°25'0 0.3
2017-Nov-14 23:01N 27°55' W 082°25'2 4.9
2017-Nov-14 22:30N 27°53' W 082°26'0 0.4
2017-Nov-14 22:00N 27°53' W 082°27'3 5.9
2017-Nov-14 21:30N 27°56' W 082°26'0 0.3
2017-Nov-14 21:00N 27°56' W 082°26'0 0.0
2017-Nov-14 20:30N 27°56' W 082°26'0 0.0
2017-Nov-14 20:00N 27°56' W 082°26'0 0.0
2017-Nov-14 19:30N 27°56' W 082°26'0 0.0
2017-Nov-14 19:00N 27°56' W 082°26'0 0.0
2017-Nov-14 18:30N 27°56' W 082°26'1 2.4
2017-Nov-14 18:01N 27°55' W 082°27'0 0.1
2017-Nov-14 17:31N 27°55' W 082°27'1 2.0
2017-Nov-14 17:00N 27°54' W 082°26'2 4.2
2017-Nov-14 16:30N 27°56' W 082°26'0 0.0
2017-Nov-14 16:00N 27°56' W 082°26'0 0.0
2017-Nov-14 15:30N 27°56' W 082°26'0 0.0
2017-Nov-14 15:00N 27°56' W 082°26'0 0.0
2017-Nov-14 14:30N 27°56' W 082°26'0 0.0
2017-Nov-14 14:00N 27°56' W 082°26'2 3.4
2017-Nov-14 13:31N 27°54' W 082°26'611.6
2017-Nov-14 13:01N 27°49' W 082°27'611.8
2017-Nov-14 12:30N 27°47' W 082°34'4 8.8
2017-Nov-14 12:01N 27°52' W 082°33'0 0.6
2017-Nov-14 11:30N 27°52' W 082°33'0 0.0
2017-Nov-14 11:01N 27°52' W 082°33'4 8.3
2017-Nov-14 10:30N 27°48' W 082°34'5 8.7
2017-Nov-14 09:59N 27°44' W 082°37'16 0.5
2017-Nov-13 02:00N 27°56' W 082°26'0 0.0
2017-Nov-13 01:30N 27°56' W 082°26'0 0.0
2017-Nov-13 01:00N 27°56' W 082°26'0 0.0
2017-Nov-13 00:30N 27°56' W 082°26'0 0.0
2017-Nov-13 00:00N 27°56' W 082°26'0 0.0
2017-Nov-12 23:30N 27°56' W 082°26'0 0.0
2017-Nov-12 23:00N 27°56' W 082°26'0 0.0
2017-Nov-12 22:30N 27°56' W 082°26'0 0.0
2017-Nov-12 22:00N 27°56' W 082°26'0 0.0
2017-Nov-12 21:30N 27°56' W 082°26'0 0.0
2017-Nov-12 21:00N 27°56' W 082°26'0 0.0
2017-Nov-12 20:30N 27°56' W 082°26'0 0.0
2017-Nov-12 20:00N 27°56' W 082°26'0 0.0
2017-Nov-12 19:30N 27°56' W 082°26'0 0.0
2017-Nov-12 19:00N 27°56' W 082°26'2 3.4
2017-Nov-12 18:31N 27°54' W 082°26'0 1.0
2017-Nov-12 18:00N 27°54' W 082°25'0 0.8
2017-Nov-12 17:30N 27°55' W 082°26'1 2.9
2017-Nov-12 17:00N 27°56' W 082°26'0 0.0
2017-Nov-12 16:30N 27°56' W 082°26'0 0.0
2017-Nov-12 16:00N 27°56' W 082°26'0 0.0
2017-Nov-12 15:30N 27°56' W 082°26'0 0.0
2017-Nov-12 15:00N 27°56' W 082°26'0 0.0
2017-Nov-12 14:30N 27°56' W 082°26'0 0.0
2017-Nov-12 14:00N 27°56' W 082°26'0 0.0
2017-Nov-12 13:30N 27°56' W 082°26'0 0.0
2017-Nov-12 13:00N 27°56' W 082°26'0 0.0
2017-Nov-12 12:30N 27°56' W 082°26'0 0.0
2017-Nov-12 12:00N 27°56' W 082°26'0 0.0
2017-Nov-12 11:30N 27°56' W 082°26'0 0.0
2017-Nov-12 11:00N 27°56' W 082°26'1 2.4
2017-Nov-12 10:30N 27°55' W 082°27'0 0.1
2017-Nov-12 10:00N 27°55' W 082°27'2 3.4
2017-Nov-12 09:31N 27°53' W 082°26'0 0.5
2017-Nov-12 09:00N 27°53' W 082°26'2 3.3
2017-Nov-12 08:30N 27°55' W 082°27'0 0.0
2017-Nov-12 08:00N 27°55' W 082°27'0 0.0
2017-Nov-12 07:30N 27°55' W 082°27'0 0.0
2017-Nov-12 07:00N 27°55' W 082°27'0 0.0
2017-Nov-12 06:30N 27°55' W 082°27'0 0.0
2017-Nov-12 06:00N 27°55' W 082°27'0 0.0
2017-Nov-12 05:30N 27°55' W 082°27'0 0.0
2017-Nov-12 05:00N 27°55' W 082°27'0 0.0
2017-Nov-12 04:30N 27°55' W 082°27'0 0.0
2017-Nov-12 04:00N 27°55' W 082°27'1 1.4
2017-Nov-12 03:30N 27°56' W 082°27'1 1.4
2017-Nov-12 03:00N 27°56' W 082°27'1 2.5
2017-Nov-12 02:30N 27°55' W 082°27'2 4.3
2017-Nov-12 02:00N 27°53' W 082°26'3 5.4
2017-Nov-12 01:30N 27°56' W 082°26'0 0.7
2017-Nov-12 01:00N 27°56' W 082°26'0 0.0
2017-Nov-12 00:30N 27°56' W 082°26'0 0.0
2017-Nov-12 00:00N 27°56' W 082°26'0 0.0
2017-Nov-11 23:30N 27°56' W 082°26'0 0.0
2017-Nov-11 23:00N 27°56' W 082°26'0 0.0
2017-Nov-11 22:30N 27°56' W 082°26'0 0.0
2017-Nov-11 22:00N 27°56' W 082°26'0 0.0
2017-Nov-11 21:30N 27°56' W 082°26'0 0.0
2017-Nov-11 21:00N 27°56' W 082°26'0 0.0
2017-Nov-11 20:30N 27°56' W 082°26'0 0.0
2017-Nov-11 20:00N 27°56' W 082°26'0 0.0
2017-Nov-11 19:30N 27°56' W 082°26'2 3.6
2017-Nov-11 19:00N 27°54' W 082°26'2 4.9
2017-Nov-11 18:31N 27°57' W 082°27'0 0.6
2017-Nov-11 18:00N 27°56' W 082°27'2 3.8
2017-Nov-11 17:30N 27°54' W 082°26'0 0.2
2017-Nov-11 17:00N 27°55' W 082°26'3 5.6
2017-Nov-11 16:30N 27°52' W 082°27'3 5.1
2017-Nov-11 15:59N 27°51' W 082°24'0 0.9
2017-Nov-11 15:30N 27°51' W 082°24'3 5.1
2017-Nov-11 15:00N 27°50' W 082°27'4 7.6
2017-Nov-11 14:30N 27°48' W 082°30'3 6.0
2017-Nov-11 14:00N 27°47' W 082°33'3 5.2
2017-Nov-11 13:31N 27°50' W 082°34'2 4.5
2017-Nov-11 13:00N 27°52' W 082°33'0 0.0
2017-Nov-11 12:30N 27°52' W 082°33'0 0.0
2017-Nov-11 12:00N 27°52' W 082°33'0 0.0
2017-Nov-11 11:30N 27°52' W 082°33'0 0.0
2017-Nov-11 11:00N 27°52' W 082°33'0 0.0
2017-Nov-11 10:30N 27°52' W 082°33'0 0.0
2017-Nov-11 10:00N 27°52' W 082°33'0 0.0
2017-Nov-11 09:30N 27°52' W 082°33'0 0.0
2017-Nov-11 09:00N 27°52' W 082°33'0 0.0
2017-Nov-11 08:30N 27°52' W 082°33'0 0.0
2017-Nov-11 08:00N 27°52' W 082°33'0 0.0
2017-Nov-11 07:30N 27°52' W 082°33'0 0.0
2017-Nov-11 07:00N 27°52' W 082°33'0 0.0
2017-Nov-11 06:30N 27°52' W 082°33'0 0.0
2017-Nov-11 06:00N 27°52' W 082°33'0 0.0
2017-Nov-11 05:30N 27°52' W 082°33'0 0.0
2017-Nov-11 05:00N 27°52' W 082°33'0 0.0
2017-Nov-11 04:30N 27°52' W 082°33'0 0.0
2017-Nov-11 04:00N 27°52' W 082°33'0 0.0
2017-Nov-11 03:30N 27°52' W 082°33'0 0.0
2017-Nov-11 03:00N 27°52' W 082°33'0 0.0
2017-Nov-11 02:30N 27°52' W 082°33'0 0.0
2017-Nov-11 02:00N 27°52' W 082°33'0 0.0
2017-Nov-11 01:30N 27°52' W 082°33'0 0.0
2017-Nov-11 01:00N 27°52' W 082°33'0 0.0
2017-Nov-11 00:30N 27°52' W 082°33'0 0.0
2017-Nov-11 00:00N 27°52' W 082°33'0 0.0
2017-Nov-10 23:30N 27°52' W 082°33'0 0.0
2017-Nov-10 23:00N 27°52' W 082°33'0 0.0
2017-Nov-10 22:30N 27°52' W 082°33'0 0.0
2017-Nov-10 22:00N 27°52' W 082°33'0 0.0
2017-Nov-10 21:30N 27°52' W 082°33'0 0.0
2017-Nov-10 21:00N 27°52' W 082°33'0 0.5
2017-Nov-10 20:30N 27°52' W 082°33'0 0.0
2017-Nov-10 20:01N 27°52' W 082°33'0 0.5
2017-Nov-10 19:30N 27°52' W 082°33'0 0.0
2017-Nov-10 19:00N 27°52' W 082°33'0 0.0
2017-Nov-10 18:30N 27°52' W 082°33'0 0.0
2017-Nov-10 18:00N 27°52' W 082°33'0 0.0
2017-Nov-10 17:30N 27°52' W 082°33'0 0.0
2017-Nov-10 17:00N 27°52' W 082°33'0 0.0
2017-Nov-10 16:30N 27°52' W 082°33'0 0.0
2017-Nov-10 16:00N 27°52' W 082°33'0 0.0
2017-Nov-10 15:30N 27°52' W 082°33'0 0.0
2017-Nov-10 15:00N 27°52' W 082°33'0 0.0
2017-Nov-10 13:41N 27°52' W 082°33'0 0.0
2017-Nov-10 13:30N 27°52' W 082°33'0 0.0
2017-Nov-10 13:00N 27°52' W 082°33'0 0.0
2017-Nov-10 12:30N 27°52' W 082°33'0 0.0
2017-Nov-10 12:00N 27°52' W 082°33'0 0.0
2017-Nov-10 11:30N 27°52' W 082°33'0 0.0
2017-Nov-10 11:00N 27°52' W 082°33'0 0.0
2017-Nov-10 10:30N 27°52' W 082°33'0 0.0
2017-Nov-10 10:00N 27°52' W 082°33'0 0.0
2017-Nov-10 09:30N 27°52' W 082°33'0 0.0
2017-Nov-10 09:00N 27°52' W 082°33'0 0.0
2017-Nov-10 08:30N 27°52' W 082°33'0 0.0
2017-Nov-10 08:00N 27°52' W 082°33'0 0.0
2017-Nov-10 07:30N 27°52' W 082°33'0 0.0
2017-Nov-10 07:00N 27°52' W 082°33'0 0.0
2017-Nov-10 06:30N 27°52' W 082°33'0 0.0
2017-Nov-10 06:00N 27°52' W 082°33'0 0.0
2017-Nov-10 05:30N 27°52' W 082°33'0 0.0
2017-Nov-10 05:00N 27°52' W 082°33'0 0.0
2017-Nov-10 04:30N 27°52' W 082°33'0 0.0
2017-Nov-10 04:00N 27°52' W 082°33'0 0.0
2017-Nov-10 03:30N 27°52' W 082°33'0 0.4
2017-Nov-10 02:58N 27°52' W 082°33'0 0.0
2017-Nov-10 02:30N 27°52' W 082°33'0 0.3
2017-Nov-10 02:00N 27°52' W 082°33'1 2.9
2017-Nov-10 01:31N 27°50' W 082°34'2 4.1
2017-Nov-10 01:01N 27°48' W 082°34'2 3.3
2017-Nov-10 00:30N 27°47' W 082°33'0 0.7
2017-Nov-10 00:00N 27°47' W 082°33'4 7.0
2017-Nov-09 23:30N 27°44' W 082°32'6 0.3
2017-Nov-09 03:10N 27°38' W 082°34'0 0.0
2017-Nov-09 03:00N 27°38' W 082°34'0 0.0
2017-Nov-09 02:30N 27°38' W 082°34'0 0.5
2017-Nov-09 02:00N 27°38' W 082°34'0 0.4
2017-Nov-09 01:30N 27°38' W 082°34'0 0.0
2017-Nov-09 01:00N 27°38' W 082°34'3 6.9
2017-Nov-09 00:31N 27°41' W 082°34'510.2
2017-Nov-09 00:00N 27°46' W 082°31'5 9.1
2017-Nov-08 23:30N 27°49' W 082°27'5 9.7
2017-Nov-08 23:00N 27°53' W 082°26'2 3.7
2017-Nov-08 22:30N 27°55' W 082°25'0 0.2
2017-Nov-08 22:01N 27°55' W 082°25'2 4.0
2017-Nov-08 21:30N 27°53' W 082°26'4 8.9
2017-Nov-08 21:00N 27°49' W 082°27'2 4.2
2017-Nov-08 20:30N 27°48' W 082°25'0 0.1
2017-Nov-08 20:00N 27°48' W 082°24'0 0.1
2017-Nov-08 19:30N 27°48' W 082°25'0 0.0
2017-Nov-08 14:45N 27°48' W 082°25'0 0.0
2017-Nov-08 14:28N 27°48' W 082°25'0 0.0
2017-Nov-08 14:00N 27°48' W 082°25'0 0.0
2017-Nov-08 13:30N 27°48' W 082°25'0 0.0
2017-Nov-08 13:00N 27°48' W 082°25'0 0.0
2017-Nov-08 12:30N 27°48' W 082°25'0 0.0
2017-Nov-08 12:00N 27°48' W 082°25'0 0.0
2017-Nov-08 11:30N 27°48' W 082°25'0 0.0
2017-Nov-08 11:00N 27°48' W 082°25'0 0.0
2017-Nov-08 10:30N 27°48' W 082°25'0 0.0
2017-Nov-08 10:00N 27°48' W 082°25'0 0.0
2017-Nov-08 09:20N 27°48' W 082°25'0 0.0
2017-Nov-08 08:34N 27°48' W 082°25'0 0.1
2017-Nov-08 08:29N 27°48' W 082°25'0 0.0
2017-Nov-08 08:00N 27°48' W 082°25'0 0.0
2017-Nov-08 07:28N 27°48' W 082°25'  
Track history (hours):
 
Tides and Currents Weather Stations Pressure Air Temp Water Temp Dewpoint Dewpoint Depression Visibility Wind Speed Wind Dir Waves Ship Positions

Independent

Last reported at 2017-Nov-18 07:18 UTC. Time now 2017-Nov-22 10:47 UTC.
Position N 27°37' W 082°41'.

Length 28 m; draft 5 m.

Type: Tug. MMSI: 367777460.

Date/timePositionNaut miles runAvg speedWind from/ knotsBaromVisibWave heightAir tempDewpointWater temp
2017-Nov-18 07:18N 27°37' W 082°41'310.6
2017-Nov-18 07:01N 27°38' W 082°37'510.2
2017-Nov-18 06:30N 27°42' W 082°33'5 9.8
2017-Nov-18 06:01N 27°46' W 082°31'5 9.5
2017-Nov-18 05:30N 27°49' W 082°27'510.0
2017-Nov-18 05:01N 27°54' W 082°26'2 4.2
2017-Nov-18 04:30N 27°56' W 082°26'0 0.0
2017-Nov-18 04:00N 27°56' W 082°26'0 0.0
2017-Nov-18 03:30N 27°56' W 082°26'0 0.0
2017-Nov-18 03:00N 27°56' W 082°26'0 0.0
2017-Nov-18 02:30N 27°56' W 082°26'0 0.0
2017-Nov-18 02:00N 27°56' W 082°26'0 0.0
2017-Nov-18 01:30N 27°56' W 082°26'0 0.0
2017-Nov-18 01:00N 27°56' W 082°26'1 2.1
2017-Nov-18 00:30N 27°55' W 082°27'0 0.1
2017-Nov-18 00:00N 27°55' W 082°27'2 4.4
2017-Nov-17 23:30N 27°53' W 082°26'0 0.4
2017-Nov-17 23:00N 27°53' W 082°26'3 5.9
2017-Nov-17 22:30N 27°56' W 082°26'0 0.0
2017-Nov-17 22:00N 27°56' W 082°26'0 0.0
2017-Nov-17 21:30N 27°56' W 082°26'0 0.0
2017-Nov-17 21:00N 27°56' W 082°26'0 0.0
2017-Nov-17 20:30N 27°56' W 082°26'0 0.0
2017-Nov-17 20:00N 27°56' W 082°26'0 0.0
2017-Nov-17 19:30N 27°56' W 082°26'0 0.0
2017-Nov-17 19:00N 27°56' W 082°26'0 0.0
2017-Nov-17 18:30N 27°56' W 082°26'0 0.0
2017-Nov-17 18:00N 27°56' W 082°26'1 2.0
2017-Nov-17 17:30N 27°55' W 082°26'1 1.6
2017-Nov-17 17:00N 27°55' W 082°27'0 0.1
2017-Nov-17 16:30N 27°55' W 082°27'2 3.9
2017-Nov-17 16:01N 27°53' W 082°26'3 5.9
2017-Nov-17 15:31N 27°56' W 082°26'0 0.5
2017-Nov-17 15:00N 27°56' W 082°26'0 0.0
2017-Nov-17 14:30N 27°56' W 082°26'0 0.0
2017-Nov-17 14:00N 27°56' W 082°26'0 0.0
2017-Nov-17 13:30N 27°56' W 082°26'0 0.0
2017-Nov-17 13:00N 27°56' W 082°26'0 0.0
2017-Nov-17 12:30N 27°56' W 082°26'0 0.0
2017-Nov-17 12:00N 27°56' W 082°26'0 0.0
2017-Nov-17 11:30N 27°56' W 082°26'0 0.0
2017-Nov-17 11:00N 27°56' W 082°26'0 0.0
2017-Nov-17 10:30N 27°56' W 082°26'0 0.0
2017-Nov-17 10:00N 27°56' W 082°26'0 0.0
2017-Nov-17 09:30N 27°56' W 082°26'0 0.0
2017-Nov-17 09:00N 27°56' W 082°26'0 0.0
2017-Nov-17 08:30N 27°56' W 082°26'0 0.0
2017-Nov-17 08:00N 27°56' W 082°26'0 0.0
2017-Nov-17 07:30N 27°56' W 082°26'0 0.0
2017-Nov-17 07:00N 27°56' W 082°26'0 0.0
2017-Nov-17 06:30N 27°56' W 082°26'0 0.0
2017-Nov-17 06:00N 27°56' W 082°26'1 1.7
2017-Nov-17 05:30N 27°56' W 082°27'1 2.6
2017-Nov-17 05:01N 27°57' W 082°27'0 0.0
2017-Nov-17 04:30N 27°57' W 082°27'0 0.0
2017-Nov-17 04:00N 27°57' W 082°27'2 3.8
2017-Nov-17 03:31N 27°55' W 082°27'1 2.4
2017-Nov-17 03:00N 27°56' W 082°26'0 0.0
2017-Nov-17 02:30N 27°56' W 082°26'0 0.0
2017-Nov-17 02:00N 27°56' W 082°26'0 0.0
2017-Nov-17 01:30N 27°56' W 082°26'0 0.0
2017-Nov-17 01:00N 27°56' W 082°26'0 0.0
2017-Nov-17 00:30N 27°56' W 082°26'0 0.0
2017-Nov-17 00:00N 27°56' W 082°26'0 0.0
2017-Nov-16 23:30N 27°56' W 082°26'0 0.0
2017-Nov-16 23:00N 27°56' W 082°26'0 0.0
2017-Nov-16 22:30N 27°56' W 082°26'0 0.0
2017-Nov-16 22:00N 27°56' W 082°26'0 0.0
2017-Nov-16 21:30N 27°56' W 082°26'0 0.0
2017-Nov-16 21:00N 27°56' W 082°26'0 0.0
2017-Nov-16 20:30N 27°56' W 082°26'0 0.0
2017-Nov-16 20:00N 27°56' W 082°26'0 0.0
2017-Nov-16 19:30N 27°56' W 082°26'0 0.0
2017-Nov-16 19:00N 27°56' W 082°26'0 0.0
2017-Nov-16 18:30N 27°56' W 082°26'0 0.0
2017-Nov-16 18:00N 27°56' W 082°26'0 0.0
2017-Nov-16 17:30N 27°56' W 082°26'0 0.0
2017-Nov-16 17:00N 27°56' W 082°26'0 0.0
2017-Nov-16 16:30N 27°56' W 082°26'0 0.0
2017-Nov-16 16:00N 27°56' W 082°26'1 2.5
2017-Nov-16 15:31N 27°55' W 082°26'1 1.6
2017-Nov-16 15:00N 27°55' W 082°27'0 0.6
2017-Nov-16 14:31N 27°55' W 082°26'0 0.0
2017-Nov-16 14:00N 27°55' W 082°26'3 5.2
2017-Nov-16 13:30N 27°52' W 082°27'4 7.7
2017-Nov-16 13:00N 27°48' W 082°25'0 0.0
2017-Nov-16 12:30N 27°48' W 082°25'2 4.0
2017-Nov-16 12:00N 27°49' W 082°27'5 9.4
2017-Nov-16 11:30N 27°53' W 082°26'2 4.6
2017-Nov-16 11:00N 27°56' W 082°26'0 0.0
2017-Nov-16 10:30N 27°56' W 082°26'0 0.8
2017-Nov-16 10:00N 27°56' W 082°26'0 0.0
2017-Nov-16 09:30N 27°56' W 082°26'0 0.0
2017-Nov-16 09:00N 27°56' W 082°26'0 0.0
2017-Nov-16 08:30N 27°56' W 082°26'0 0.0
2017-Nov-16 08:00N 27°56' W 082°26'0 0.0
2017-Nov-16 07:30N 27°56' W 082°26'0 0.0
2017-Nov-16 07:00N 27°56' W 082°26'0 0.0
2017-Nov-16 06:30N 27°56' W 082°26'0 0.0
2017-Nov-16 06:00N 27°56' W 082°26'0 0.0
2017-Nov-16 05:30N 27°56' W 082°26'0 0.0
2017-Nov-16 05:00N 27°56' W 082°26'0 0.0
2017-Nov-16 04:30N 27°56' W 082°26'0 0.0
2017-Nov-16 04:00N 27°56' W 082°26'0 0.0
2017-Nov-16 03:30N 27°56' W 082°26'0 0.0
2017-Nov-16 03:00N 27°56' W 082°26'0 0.0
2017-Nov-16 02:30N 27°56' W 082°26'0 0.0
2017-Nov-16 02:00N 27°56' W 082°26'0 0.0
2017-Nov-16 01:30N 27°56' W 082°26'0 0.0
2017-Nov-16 01:00N 27°56' W 082°26'0 0.0
2017-Nov-16 00:30N 27°56' W 082°26'0 0.0
2017-Nov-16 00:00N 27°56' W 082°26'0 0.0
2017-Nov-15 23:30N 27°56' W 082°26'1 2.0
2017-Nov-15 23:00N 27°55' W 082°26'1 1.7
2017-Nov-15 22:31N 27°54' W 082°26'1 1.5
2017-Nov-15 22:01N 27°55' W 082°25'0 0.0
2017-Nov-15 21:30N 27°55' W 082°25'1 2.0
2017-Nov-15 21:00N 27°55' W 082°27'0 0.0
2017-Nov-15 20:30N 27°55' W 082°27'0 0.1
2017-Nov-15 20:00N 27°55' W 082°27'1 1.2
2017-Nov-15 19:30N 27°54' W 082°26'1 2.9
2017-Nov-15 19:00N 27°53' W 082°26'1 2.2
2017-Nov-15 18:30N 27°54' W 082°26'1 1.4
2017-Nov-15 18:00N 27°55' W 082°26'0 0.0
2017-Nov-15 17:30N 27°55' W 082°26'0 0.0
2017-Nov-15 17:00N 27°55' W 082°26'0 0.0
2017-Nov-15 16:30N 27°55' W 082°26'0 0.0
2017-Nov-15 16:00N 27°55' W 082°26'0 0.0
2017-Nov-15 15:30N 27°55' W 082°26'2 3.8
2017-Nov-15 15:01N 27°53' W 082°27'510.1
2017-Nov-15 14:30N 27°48' W 082°29'510.1
2017-Nov-15 14:00N 27°48' W 082°34'4 8.3
2017-Nov-15 13:30N 27°52' W 082°33'0 0.0
2017-Nov-15 13:00N 27°52' W 082°33'1 1.9
2017-Nov-15 12:30N 27°51' W 082°34'2 3.9
2017-Nov-15 12:00N 27°49' W 082°34'4 8.0
2017-Nov-15 11:30N 27°47' W 082°30'510.7
2017-Nov-15 11:00N 27°52' W 082°27'3 6.7
2017-Nov-15 10:30N 27°55' W 082°27'0 0.0
2017-Nov-15 10:00N 27°55' W 082°27'1 2.1
2017-Nov-15 09:30N 27°56' W 082°26'0 0.0
2017-Nov-15 09:00N 27°56' W 082°26'0 0.0
2017-Nov-15 08:30N 27°56' W 082°26'0 0.0
2017-Nov-15 08:00N 27°56' W 082°26'0 0.0
2017-Nov-15 07:30N 27°56' W 082°26'0 0.0
2017-Nov-15 07:00N 27°56' W 082°26'0 0.0
2017-Nov-15 06:30N 27°56' W 082°26'0 0.0
2017-Nov-15 06:00N 27°56' W 082°26'0 0.0
2017-Nov-15 05:30N 27°56' W 082°26'0 0.0
2017-Nov-15 05:00N 27°56' W 082°26'0 0.0
2017-Nov-15 04:30N 27°56' W 082°26'0 0.0
2017-Nov-15 04:00N 27°56' W 082°26'0 0.0
2017-Nov-15 03:30N 27°56' W 082°26'0 0.0
2017-Nov-15 03:01N 27°56' W 082°26'0 0.0
2017-Nov-15 02:30N 27°56' W 082°26'0 0.0
2017-Nov-15 02:00N 27°56' W 082°26'0 0.0
2017-Nov-15 01:30N 27°56' W 082°26'0 0.0
2017-Nov-15 01:00N 27°56' W 082°26'0 0.0
2017-Nov-15 00:30N 27°56' W 082°26'1 2.2
2017-Nov-15 00:00N 27°55' W 082°25'0 0.0
2017-Nov-14 23:30N 27°55' W 082°25'0 0.3
2017-Nov-14 23:01N 27°55' W 082°25'2 4.9
2017-Nov-14 22:30N 27°53' W 082°26'0 0.4
2017-Nov-14 22:00N 27°53' W 082°27'3 5.9
2017-Nov-14 21:30N 27°56' W 082°26'0 0.3
2017-Nov-14 21:00N 27°56' W 082°26'0 0.0
2017-Nov-14 20:30N 27°56' W 082°26'0 0.0
2017-Nov-14 20:00N 27°56' W 082°26'0 0.0
2017-Nov-14 19:30N 27°56' W 082°26'0 0.0
2017-Nov-14 19:00N 27°56' W 082°26'0 0.0
2017-Nov-14 18:30N 27°56' W 082°26'1 2.4
2017-Nov-14 18:01N 27°55' W 082°27'0 0.1
2017-Nov-14 17:31N 27°55' W 082°27'1 2.0
2017-Nov-14 17:00N 27°54' W 082°26'2 4.2
2017-Nov-14 16:30N 27°56' W 082°26'0 0.0
2017-Nov-14 16:00N 27°56' W 082°26'0 0.0
2017-Nov-14 15:30N 27°56' W 082°26'0 0.0
2017-Nov-14 15:00N 27°56' W 082°26'0 0.0
2017-Nov-14 14:30N 27°56' W 082°26'0 0.0
2017-Nov-14 14:00N 27°56' W 082°26'2 3.4
2017-Nov-14 13:31N 27°54' W 082°26'611.6
2017-Nov-14 13:01N 27°49' W 082°27'611.8
2017-Nov-14 12:30N 27°47' W 082°34'4 8.8
2017-Nov-14 12:01N 27°52' W 082°33'0 0.6
2017-Nov-14 11:30N 27°52' W 082°33'0 0.0
2017-Nov-14 11:01N 27°52' W 082°33'4 8.3
2017-Nov-14 10:30N 27°48' W 082°34'5 8.7
2017-Nov-14 09:59N 27°44' W 082°37'16 0.5
2017-Nov-13 02:00N 27°56' W 082°26'0 0.0
2017-Nov-13 01:30N 27°56' W 082°26'0 0.0
2017-Nov-13 01:00N 27°56' W 082°26'0 0.0
2017-Nov-13 00:30N 27°56' W 082°26'0 0.0
2017-Nov-13 00:00N 27°56' W 082°26'0 0.0
2017-Nov-12 23:30N 27°56' W 082°26'0 0.0
2017-Nov-12 23:00N 27°56' W 082°26'0 0.0
2017-Nov-12 22:30N 27°56' W 082°26'0 0.0
2017-Nov-12 22:00N 27°56' W 082°26'0 0.0
2017-Nov-12 21:30N 27°56' W 082°26'0 0.0
2017-Nov-12 21:00N 27°56' W 082°26'0 0.0
2017-Nov-12 20:30N 27°56' W 082°26'0 0.0
2017-Nov-12 20:00N 27°56' W 082°26'0 0.0
2017-Nov-12 19:30N 27°56' W 082°26'0 0.0
2017-Nov-12 19:00N 27°56' W 082°26'2 3.4
2017-Nov-12 18:31N 27°54' W 082°26'0 1.0
2017-Nov-12 18:00N 27°54' W 082°25'0 0.8
2017-Nov-12 17:30N 27°55' W 082°26'1 2.9
2017-Nov-12 17:00N 27°56' W 082°26'0 0.0
2017-Nov-12 16:30N 27°56' W 082°26'0 0.0
2017-Nov-12 16:00N 27°56' W 082°26'0 0.0
2017-Nov-12 15:30N 27°56' W 082°26'0 0.0
2017-Nov-12 15:00N 27°56' W 082°26'0 0.0
2017-Nov-12 14:30N 27°56' W 082°26'0 0.0
2017-Nov-12 14:00N 27°56' W 082°26'0 0.0
2017-Nov-12 13:30N 27°56' W 082°26'0 0.0
2017-Nov-12 13:00N 27°56' W 082°26'0 0.0
2017-Nov-12 12:30N 27°56' W 082°26'0 0.0
2017-Nov-12 12:00N 27°56' W 082°26'0 0.0
2017-Nov-12 11:30N 27°56' W 082°26'0 0.0
2017-Nov-12 11:00N 27°56' W 082°26'1 2.4
2017-Nov-12 10:30N 27°55' W 082°27'0 0.1
2017-Nov-12 10:00N 27°55' W 082°27'2 3.4
2017-Nov-12 09:31N 27°53' W 082°26'0 0.5
2017-Nov-12 09:00N 27°53' W 082°26'2 3.3
2017-Nov-12 08:30N 27°55' W 082°27'0 0.0
2017-Nov-12 08:00N 27°55' W 082°27'0 0.0
2017-Nov-12 07:30N 27°55' W 082°27'0 0.0
2017-Nov-12 07:00N 27°55' W 082°27'0 0.0
2017-Nov-12 06:30N 27°55' W 082°27'0 0.0
2017-Nov-12 06:00N 27°55' W 082°27'0 0.0
2017-Nov-12 05:30N 27°55' W 082°27'0 0.0
2017-Nov-12 05:00N 27°55' W 082°27'0 0.0
2017-Nov-12 04:30N 27°55' W 082°27'0 0.0
2017-Nov-12 04:00N 27°55' W 082°27'1 1.4
2017-Nov-12 03:30N 27°56' W 082°27'1 1.4
2017-Nov-12 03:00N 27°56' W 082°27'1 2.5
2017-Nov-12 02:30N 27°55' W 082°27'2 4.3
2017-Nov-12 02:00N 27°53' W 082°26'3 5.4
2017-Nov-12 01:30N 27°56' W 082°26'0 0.7
2017-Nov-12 01:00N 27°56' W 082°26'0 0.0
2017-Nov-12 00:30N 27°56' W 082°26'0 0.0
2017-Nov-12 00:00N 27°56' W 082°26'0 0.0
2017-Nov-11 23:30N 27°56' W 082°26'0 0.0
2017-Nov-11 23:00N 27°56' W 082°26'0 0.0
2017-Nov-11 22:30N 27°56' W 082°26'0 0.0
2017-Nov-11 22:00N 27°56' W 082°26'0 0.0
2017-Nov-11 21:30N 27°56' W 082°26'0 0.0
2017-Nov-11 21:00N 27°56' W 082°26'0 0.0
2017-Nov-11 20:30N 27°56' W 082°26'0 0.0
2017-Nov-11 20:00N 27°56' W 082°26'0 0.0
2017-Nov-11 19:30N 27°56' W 082°26'2 3.6
2017-Nov-11 19:00N 27°54' W 082°26'2 4.9
2017-Nov-11 18:31N 27°57' W 082°27'0 0.6
2017-Nov-11 18:00N 27°56' W 082°27'2 3.8
2017-Nov-11 17:30N 27°54' W 082°26'0 0.2
2017-Nov-11 17:00N 27°55' W 082°26'3 5.6
2017-Nov-11 16:30N 27°52' W 082°27'3 5.1
2017-Nov-11 15:59N 27°51' W 082°24'0 0.9
2017-Nov-11 15:30N 27°51' W 082°24'3 5.1
2017-Nov-11 15:00N 27°50' W 082°27'4 7.6
2017-Nov-11 14:30N 27°48' W 082°30'3 6.0
2017-Nov-11 14:00N 27°47' W 082°33'3 5.2
2017-Nov-11 13:31N 27°50' W 082°34'2 4.5
2017-Nov-11 13:00N 27°52' W 082°33'0 0.0
2017-Nov-11 12:30N 27°52' W 082°33'0 0.0
2017-Nov-11 12:00N 27°52' W 082°33'0 0.0
2017-Nov-11 11:30N 27°52' W 082°33'0 0.0
2017-Nov-11 11:00N 27°52' W 082°33'0 0.0
2017-Nov-11 10:30N 27°52' W 082°33'0 0.0
2017-Nov-11 10:00N 27°52' W 082°33'0 0.0
2017-Nov-11 09:30N 27°52' W 082°33'0 0.0
2017-Nov-11 09:00N 27°52' W 082°33'0 0.0
2017-Nov-11 08:30N 27°52' W 082°33'0 0.0
2017-Nov-11 08:00N 27°52' W 082°33'0 0.0
2017-Nov-11 07:30N 27°52' W 082°33'0 0.0
2017-Nov-11 07:00N 27°52' W 082°33'0 0.0
2017-Nov-11 06:30N 27°52' W 082°33'0 0.0
2017-Nov-11 06:00N 27°52' W 082°33'0 0.0
2017-Nov-11 05:30N 27°52' W 082°33'0 0.0
2017-Nov-11 05:00N 27°52' W 082°33'0 0.0
2017-Nov-11 04:30N 27°52' W 082°33'0 0.0
2017-Nov-11 04:00N 27°52' W 082°33'0 0.0
2017-Nov-11 03:30N 27°52' W 082°33'0 0.0
2017-Nov-11 03:00N 27°52' W 082°33'0 0.0
2017-Nov-11 02:30N 27°52' W 082°33'0 0.0
2017-Nov-11 02:00N 27°52' W 082°33'0 0.0
2017-Nov-11 01:30N 27°52' W 082°33'0 0.0
2017-Nov-11 01:00N 27°52' W 082°33'0 0.0
2017-Nov-11 00:30N 27°52' W 082°33'0 0.0
2017-Nov-11 00:00N 27°52' W 082°33'0 0.0
2017-Nov-10 23:30N 27°52' W 082°33'0 0.0
2017-Nov-10 23:00N 27°52' W 082°33'0 0.0
2017-Nov-10 22:30N 27°52' W 082°33'0 0.0
2017-Nov-10 22:00N 27°52' W 082°33'0 0.0
2017-Nov-10 21:30N 27°52' W 082°33'0 0.0
2017-Nov-10 21:00N 27°52' W 082°33'0 0.5
2017-Nov-10 20:30N 27°52' W 082°33'0 0.0
2017-Nov-10 20:01N 27°52' W 082°33'0 0.5
2017-Nov-10 19:30N 27°52' W 082°33'0 0.0
2017-Nov-10 19:00N 27°52' W 082°33'0 0.0
2017-Nov-10 18:30N 27°52' W 082°33'0 0.0
2017-Nov-10 18:00N 27°52' W 082°33'0 0.0
2017-Nov-10 17:30N 27°52' W 082°33'0 0.0
2017-Nov-10 17:00N 27°52' W 082°33'0 0.0
2017-Nov-10 16:30N 27°52' W 082°33'0 0.0
2017-Nov-10 16:00N 27°52' W 082°33'0 0.0
2017-Nov-10 15:30N 27°52' W 082°33'0 0.0
2017-Nov-10 15:00N 27°52' W 082°33'0 0.0
2017-Nov-10 13:41N 27°52' W 082°33'0 0.0
2017-Nov-10 13:30N 27°52' W 082°33'0 0.0
2017-Nov-10 13:00N 27°52' W 082°33'0 0.0
2017-Nov-10 12:30N 27°52' W 082°33'0 0.0
2017-Nov-10 12:00N 27°52' W 082°33'0 0.0
2017-Nov-10 11:30N 27°52' W 082°33'0 0.0
2017-Nov-10 11:00N 27°52' W 082°33'0 0.0
2017-Nov-10 10:30N 27°52' W 082°33'0 0.0
2017-Nov-10 10:00N 27°52' W 082°33'0 0.0
2017-Nov-10 09:30N 27°52' W 082°33'0 0.0
2017-Nov-10 09:00N 27°52' W 082°33'0 0.0
2017-Nov-10 08:30N 27°52' W 082°33'0 0.0
2017-Nov-10 08:00N 27°52' W 082°33'0 0.0
2017-Nov-10 07:30N 27°52' W 082°33'0 0.0
2017-Nov-10 07:00N 27°52' W 082°33'0 0.0
2017-Nov-10 06:30N 27°52' W 082°33'0 0.0
2017-Nov-10 06:00N 27°52' W 082°33'0 0.0
2017-Nov-10 05:30N 27°52' W 082°33'0 0.0
2017-Nov-10 05:00N 27°52' W 082°33'0 0.0
2017-Nov-10 04:30N 27°52' W 082°33'0 0.0
2017-Nov-10 04:00N 27°52' W 082°33'0 0.0
2017-Nov-10 03:30N 27°52' W 082°33'0 0.4
2017-Nov-10 02:58N 27°52' W 082°33'0 0.0
2017-Nov-10 02:30N 27°52' W 082°33'0 0.3
2017-Nov-10 02:00N 27°52' W 082°33'1 2.9
2017-Nov-10 01:31N 27°50' W 082°34'2 4.1
2017-Nov-10 01:01N 27°48' W 082°34'2 3.3
2017-Nov-10 00:30N 27°47' W 082°33'0 0.7
2017-Nov-10 00:00N 27°47' W 082°33'4 7.0
2017-Nov-09 23:30N 27°44' W 082°32'6 0.3
2017-Nov-09 03:10N 27°38' W 082°34'0 0.0
2017-Nov-09 03:00N 27°38' W 082°34'0 0.0
2017-Nov-09 02:30N 27°38' W 082°34'0 0.5
2017-Nov-09 02:00N 27°38' W 082°34'0 0.4
2017-Nov-09 01:30N 27°38' W 082°34'0 0.0
2017-Nov-09 01:00N 27°38' W 082°34'3 6.9
2017-Nov-09 00:31N 27°41' W 082°34'510.2
2017-Nov-09 00:00N 27°46' W 082°31'5 9.1
2017-Nov-08 23:30N 27°49' W 082°27'5 9.7
2017-Nov-08 23:00N 27°53' W 082°26'2 3.7
2017-Nov-08 22:30N 27°55' W 082°25'0 0.2
2017-Nov-08 22:01N 27°55' W 082°25'2 4.0
2017-Nov-08 21:30N 27°53' W 082°26'4 8.9
2017-Nov-08 21:00N 27°49' W 082°27'2 4.2
2017-Nov-08 20:30N 27°48' W 082°25'0 0.1
2017-Nov-08 20:00N 27°48' W 082°24'0 0.1
2017-Nov-08 19:30N 27°48' W 082°25'0 0.0
2017-Nov-08 14:45N 27°48' W 082°25'0 0.0
2017-Nov-08 14:28N 27°48' W 082°25'0 0.0
2017-Nov-08 14:00N 27°48' W 082°25'0 0.0
2017-Nov-08 13:30N 27°48' W 082°25'0 0.0
2017-Nov-08 13:00N 27°48' W 082°25'0 0.0
2017-Nov-08 12:30N 27°48' W 082°25'0 0.0
2017-Nov-08 12:00N 27°48' W 082°25'0 0.0
2017-Nov-08 11:30N 27°48' W 082°25'0 0.0
2017-Nov-08 11:00N 27°48' W 082°25'0 0.0
2017-Nov-08 10:30N 27°48' W 082°25'0 0.0
2017-Nov-08 10:00N 27°48' W 082°25'0 0.0
2017-Nov-08 09:20N 27°48' W 082°25'0 0.0
2017-Nov-08 08:34N 27°48' W 082°25'0 0.1
2017-Nov-08 08:29N 27°48' W 082°25'0 0.0
2017-Nov-08 08:00N 27°48' W 082°25'0 0.0
2017-Nov-08 07:28N 27°48' W 082°25'  

Dump ship's entire track history